Time;durP1;ratioP1;P1;durP2;ratioP2;P2;SDS_P1;SDS_P2;PMS_P1;PMS_P2;Temp;Humidity;BMP_temperature;BMP_pressure;BME280_temperature;BME280_humidity;BME280_pressure;Samples;Min_cycle;Max_cycle;Signal;HPM_P1;HPM_P2
2021/01/11 00:00:23;;;;;;;16.50;10.77;;;-5.40;99.90;;;;;;5032285;28;20185;-73
2021/01/11 00:02:51;;;;;;;15.82;9.75;;;-5.50;99.90;;;;;;5028630;28;20702;-73
2021/01/11 00:05:19;;;;;;;15.60;8.90;;;-5.50;99.90;;;;;;5033443;28;20668;-73
2021/01/11 00:07:48;;;;;;;16.17;9.07;;;-5.50;99.90;;;;;;5034651;28;20181;-76
2021/01/11 00:10:16;;;;;;;17.17;10.10;;;-5.50;99.90;;;;;;5033244;28;20260;-73
2021/01/11 00:12:44;;;;;;;14.27;9.30;;;-5.50;99.90;;;;;;5032539;28;20181;-73
2021/01/11 00:15:14;;;;;;;12.60;8.90;;;-5.50;99.90;;;;;;5032307;28;20580;-77
2021/01/11 00:17:43;;;;;;;15.02;9.43;;;-5.50;99.90;;;;;;5032191;28;20667;-73
2021/01/11 00:20:12;;;;;;;15.40;9.30;;;-5.60;99.90;;;;;;5032172;28;20250;-73
2021/01/11 00:22:43;;;;;;;19.73;9.82;;;-5.60;99.90;;;;;;5047626;28;20251;-77
2021/01/11 00:25:13;;;;;;;15.75;10.35;;;-5.60;99.90;;;;;;5032230;28;20231;-74
2021/01/11 00:27:41;;;;;;;16.60;10.18;;;-5.70;99.90;;;;;;5031185;28;20283;-72
2021/01/11 00:30:10;;;;;;;16.55;10.05;;;-5.70;99.90;;;;;;5032921;28;20235;-73
2021/01/11 00:32:39;;;;;;;21.65;11.73;;;-5.80;99.90;;;;;;5033055;28;20236;-73
2021/01/11 00:35:08;;;;;;;17.52;9.70;;;-5.80;99.90;;;;;;5032736;28;20205;-72
2021/01/11 00:37:35;;;;;;;13.05;10.02;;;-5.80;99.90;;;;;;5048040;28;20192;-73
2021/01/11 00:40:05;;;;;;;17.63;11.23;;;-5.70;99.90;;;;;;5031454;28;20261;-72
2021/01/11 00:42:34;;;;;;;13.10;8.70;;;-5.70;99.90;;;;;;5032841;28;20254;-74
2021/01/11 00:45:06;;;;;;;14.90;10.55;;;-5.80;99.90;;;;;;5032054;28;20192;-74
2021/01/11 00:47:37;;;;;;;21.83;10.93;;;-5.80;99.90;;;;;;5010640;28;20229;-75
2021/01/11 00:50:06;;;;;;;19.13;11.30;;;-5.80;99.90;;;;;;5012538;28;20504;-72
2021/01/11 00:52:35;;;;;;;19.02;10.50;;;-5.90;99.90;;;;;;5010811;28;20185;-74
2021/01/11 00:55:05;;;;;;;19.58;11.40;;;-5.90;99.90;;;;;;5011774;28;20316;-73
2021/01/11 00:58:04;;;;;;;15.70;12.43;;;-5.90;99.90;;;;;;5013024;28;20185;-72
2021/01/11 01:00:38;;;;;;;18.48;12.38;;;-5.90;99.90;;;;;;5017047;28;20246;-72
2021/01/11 01:03:14;;;;;;;18.40;11.77;;;-6.00;99.90;;;;;;5027614;28;20242;-73
2021/01/11 01:05:42;;;;;;;19.15;12.70;;;-6.00;99.90;;;;;;5031547;28;20192;-77
2021/01/11 01:08:09;;;;;;;15.40;10.95;;;-5.90;99.90;;;;;;5030748;28;20255;-72
2021/01/11 01:10:36;;;;;;;22.05;10.60;;;-5.90;99.90;;;;;;5049342;28;20191;-75
2021/01/11 01:13:05;;;;;;;17.98;11.35;;;-5.90;99.90;;;;;;5033491;28;20180;-76
2021/01/11 01:15:32;;;;;;;17.70;10.60;;;-5.90;99.90;;;;;;5034388;28;20274;-72
2021/01/11 01:18:00;;;;;;;24.40;11.65;;;-5.90;99.90;;;;;;5037302;28;20302;-72
2021/01/11 01:20:28;;;;;;;22.67;13.00;;;-5.90;99.90;;;;;;5036880;28;20283;-72
2021/01/11 01:22:56;;;;;;;19.70;13.02;;;-5.90;99.90;;;;;;5035938;28;20526;-72
2021/01/11 01:25:49;;;;;;;20.60;11.23;;;-5.80;99.90;;;;;;5035411;28;20188;-72
2021/01/11 01:28:19;;;;;;;19.00;12.55;;;-5.80;99.90;;;;;;5035109;28;20256;-75
2021/01/11 01:30:46;;;;;;;22.77;14.48;;;-5.80;99.90;;;;;;5034705;28;20239;-75
2021/01/11 01:33:13;;;;;;;17.67;10.57;;;-5.80;99.90;;;;;;5035602;28;20188;-72
2021/01/11 01:35:41;;;;;;;21.88;12.18;;;-5.80;99.90;;;;;;5033944;28;20240;-77
2021/01/11 01:38:08;;;;;;;18.20;11.50;;;-5.80;99.90;;;;;;5035196;28;20189;-72
2021/01/11 01:40:35;;;;;;;17.55;9.98;;;-5.70;99.90;;;;;;5035059;28;20356;-71
2021/01/11 01:43:03;;;;;;;19.25;11.73;;;-5.70;99.90;;;;;;5035483;28;20200;-75
2021/01/11 01:45:31;;;;;;;17.73;11.52;;;-5.70;99.90;;;;;;5036571;28;20196;-71
2021/01/11 01:47:59;;;;;;;19.25;11.48;;;-5.70;99.90;;;;;;5035405;28;20248;-72
2021/01/11 01:50:27;;;;;;;22.42;11.30;;;-5.70;99.90;;;;;;5035985;28;20496;-71
2021/01/11 01:52:54;;;;;;;22.60;11.32;;;-5.60;99.90;;;;;;5037845;28;20238;-72
2021/01/11 01:55:22;;;;;;;14.43;10.63;;;-5.60;99.90;;;;;;5036852;28;20678;-75
2021/01/11 01:57:51;;;;;;;14.45;10.95;;;-5.50;99.90;;;;;;5035521;28;20310;-73
2021/01/11 02:00:22;;;;;;;14.23;10.50;;;-5.50;99.90;;;;;;5036359;28;20196;-72
2021/01/11 02:02:50;;;;;;;19.77;13.45;;;-5.40;99.90;;;;;;5036160;28;20228;-73
2021/01/11 02:05:19;;;;;;;17.75;11.90;;;-5.40;99.90;;;;;;5036357;28;20180;-72
2021/01/11 02:07:53;;;;;;;17.08;10.52;;;-5.40;99.90;;;;;;5033866;28;20561;-73
2021/01/11 02:10:40;;;;;;;19.38;10.98;;;-5.30;99.90;;;;;;5033880;28;20192;-72
2021/01/11 02:13:18;;;;;;;12.43;9.38;;;-5.30;99.90;;;;;;5035338;28;20184;-74
2021/01/11 02:15:54;;;;;;;12.82;9.02;;;-5.30;99.90;;;;;;5032699;28;20636;-73
2021/01/11 02:18:31;;;;;;;15.45;9.55;;;-5.40;99.90;;;;;;5035710;28;20601;-72
2021/01/11 02:21:18;;;;;;;14.88;10.10;;;-5.40;99.90;;;;;;5034083;28;20207;-73
2021/01/11 02:24:35;;;;;;;18.00;10.68;;;-5.30;99.90;;;;;;5034495;28;20267;-72
2021/01/11 02:27:20;;;;;;;13.10;9.20;;;-5.30;99.90;;;;;;5036558;28;20188;-76
2021/01/11 02:30:10;;;;;;;13.32;8.80;;;-5.40;99.90;;;;;;5036579;28;20189;-73
2021/01/11 02:32:43;;;;;;;15.07;9.77;;;-5.40;99.90;;;;;;5036466;28;20240;-78
2021/01/11 02:35:12;;;;;;;17.70;10.75;;;-5.40;99.90;;;;;;5036349;28;20656;-76
2021/01/11 02:37:40;;;;;;;19.67;11.10;;;-5.40;99.90;;;;;;5036802;28;20591;-74
2021/01/11 02:40:09;;;;;;;21.75;11.90;;;-5.40;99.90;;;;;;5035469;28;20197;-73
2021/01/11 02:42:38;;;;;;;23.95;11.85;;;-5.40;99.90;;;;;;5036710;28;20181;-77
2021/01/11 02:45:09;;;;;;;18.48;11.32;;;-5.40;99.90;;;;;;5036045;28;20181;-75
2021/01/11 02:47:47;;;;;;;23.42;11.93;;;-5.40;99.90;;;;;;5036182;28;20594;-73
2021/01/11 02:50:19;;;;;;;20.48;12.68;;;-5.40;99.90;;;;;;5037137;28;20577;-73
2021/01/11 02:52:58;;;;;;;23.13;11.90;;;-5.30;99.90;;;;;;5033679;28;20216;-79
2021/01/11 02:55:33;;;;;;;22.27;12.40;;;-5.30;99.90;;;;;;5036174;28;20205;-78
2021/01/11 02:58:10;;;;;;;18.38;10.90;;;-5.40;99.90;;;;;;5034025;28;20199;-75
2021/01/11 03:00:42;;;;;;;19.25;11.40;;;-5.40;99.90;;;;;;5034128;28;20188;-74
2021/01/11 03:03:36;;;;;;;17.60;11.30;;;-5.40;99.90;;;;;;5030435;28;20244;-73
2021/01/11 03:06:04;;;;;;;19.75;10.73;;;-5.50;99.90;;;;;;5034205;28;20536;-74
2021/01/11 03:08:32;;;;;;;16.80;10.70;;;-5.50;99.90;;;;;;5034086;28;20231;-74
2021/01/11 03:11:24;;;;;;;19.80;10.52;;;-5.60;99.90;;;;;;5033128;28;20239;-75
2021/01/11 03:13:54;;;;;;;21.80;11.77;;;-5.60;99.90;;;;;;5035385;28;20280;-73
2021/01/11 03:16:23;;;;;;;14.40;9.50;;;-5.60;99.90;;;;;;5033769;28;20246;-75
2021/01/11 03:18:51;;;;;;;15.27;11.48;;;-5.70;99.90;;;;;;5036208;28;20598;-74
2021/01/11 03:21:18;;;;;;;14.43;10.65;;;-5.70;99.90;;;;;;5049617;28;20218;-74
2021/01/11 03:23:46;;;;;;;15.98;9.85;;;-5.80;99.90;;;;;;5032260;28;20291;-72
2021/01/11 03:26:22;;;;;;;12.93;8.88;;;-5.80;99.90;;;;;;5035236;28;20177;-73
2021/01/11 03:28:50;;;;;;;19.33;10.32;;;-5.90;99.90;;;;;;5036090;28;20184;-75
2021/01/11 03:31:19;;;;;;;16.98;11.25;;;-5.90;99.90;;;;;;5050468;28;20240;-74
2021/01/11 03:33:48;;;;;;;20.77;10.15;;;-6.00;99.90;;;;;;5034976;28;20189;-74
2021/01/11 03:36:15;;;;;;;19.88;11.23;;;-6.00;99.90;;;;;;5034070;28;20264;-75
2021/01/11 03:38:43;;;;;;;16.80;9.38;;;-6.10;99.90;;;;;;5031815;28;20283;-74
2021/01/11 03:41:11;;;;;;;14.10;9.48;;;-6.10;99.90;;;;;;5030404;28;20223;-75
2021/01/11 03:43:40;;;;;;;19.67;10.35;;;-6.20;99.90;;;;;;5033327;28;20260;-75
2021/01/11 03:46:08;;;;;;;14.82;10.00;;;-6.20;99.90;;;;;;5031958;28;20236;-74
2021/01/11 03:48:36;;;;;;;15.68;10.75;;;-6.20;99.90;;;;;;5032502;28;20628;-77
2021/01/11 03:51:06;;;;;;;18.95;11.52;;;-6.20;99.90;;;;;;5030877;28;20189;-73
2021/01/11 03:53:33;;;;;;;17.02;11.18;;;-6.30;99.90;;;;;;5032876;28;20196;-73
2021/01/11 03:56:05;;;;;;;21.15;12.85;;;-6.30;99.90;;;;;;5032518;28;20279;-76
2021/01/11 03:58:32;;;;;;;17.67;10.65;;;-6.30;99.90;;;;;;5033046;28;20192;-76
2021/01/11 04:01:00;;;;;;;19.40;11.95;;;-6.40;99.90;;;;;;5031822;28;20200;-74
2021/01/11 04:03:28;;;;;;;18.42;12.20;;;-6.50;99.90;;;;;;5032872;28;20254;-77
2021/01/11 04:05:57;;;;;;;18.80;11.63;;;-6.50;99.90;;;;;;5032978;28;20237;-73
2021/01/11 04:08:26;;;;;;;21.42;11.73;;;-6.50;99.90;;;;;;5031748;28;20193;-73
2021/01/11 04:10:53;;;;;;;17.08;10.70;;;-6.60;99.90;;;;;;5034457;28;20185;-73
2021/01/11 04:13:22;;;;;;;23.30;12.25;;;-6.60;99.90;;;;;;5032772;28;20272;-75
2021/01/11 04:16:14;;;;;;;17.17;11.20;;;-6.60;99.90;;;;;;5030208;28;20224;-72
2021/01/11 04:18:42;;;;;;;21.13;12.88;;;-6.70;99.90;;;;;;5032369;28;20259;-74
2021/01/11 04:21:11;;;;;;;17.48;10.88;;;-6.70;99.90;;;;;;5032505;28;20230;-74
2021/01/11 04:23:40;;;;;;;17.38;11.20;;;-6.70;99.90;;;;;;5032663;28;20225;-75
2021/01/11 04:26:08;;;;;;;16.88;10.75;;;-6.80;99.90;;;;;;5034280;28;20189;-73
2021/01/11 04:28:36;;;;;;;17.70;11.80;;;-6.90;99.90;;;;;;5034023;28;20192;-74
2021/01/11 04:31:04;;;;;;;20.35;12.20;;;-6.90;99.90;;;;;;5034015;28;20192;-76
2021/01/11 04:33:32;;;;;;;21.40;12.38;;;-6.80;99.90;;;;;;5033594;28;20546;-79
2021/01/11 04:36:00;;;;;;;29.65;12.70;;;-6.80;99.90;;;;;;5031933;28;20295;-74
2021/01/11 04:38:28;;;;;;;21.17;14.23;;;-6.80;99.90;;;;;;5032959;28;20184;-73
2021/01/11 04:41:01;;;;;;;28.55;13.60;;;-6.80;99.90;;;;;;5033812;28;20189;-75
2021/01/11 04:43:35;;;;;;;28.13;13.55;;;-6.80;99.90;;;;;;5034039;28;20181;-73
2021/01/11 04:46:02;;;;;;;20.58;12.02;;;-6.80;99.90;;;;;;5031357;28;20192;-74
2021/01/11 04:48:31;;;;;;;23.10;13.70;;;-6.80;99.90;;;;;;5035303;28;20184;-73
2021/01/11 04:50:59;;;;;;;25.20;13.40;;;-6.70;99.90;;;;;;5035886;28;20207;-73
2021/01/11 04:53:27;;;;;;;27.45;14.27;;;-6.70;99.90;;;;;;5035193;28;20185;-73
2021/01/11 04:56:00;;;;;;;26.92;13.18;;;-6.70;99.90;;;;;;5033703;28;20675;-74
2021/01/11 04:58:40;;;;;;;26.92;13.70;;;-6.70;99.90;;;;;;5037409;28;20259;-73
2021/01/11 05:01:14;;;;;;;35.20;15.82;;;-6.60;99.90;;;;;;5040579;28;20782;-76
2021/01/11 05:03:45;;;;;;;24.52;11.98;;;-6.60;99.90;;;;;;5041896;28;20222;-73
2021/01/11 05:06:16;;;;;;;29.98;13.38;;;-6.50;99.90;;;;;;5041562;28;20195;-73
2021/01/11 05:08:45;;;;;;;27.65;15.00;;;-6.50;99.90;;;;;;5042168;28;20184;-75
2021/01/11 05:11:14;;;;;;;18.05;12.82;;;-6.50;99.90;;;;;;5041265;28;20742;-72
2021/01/11 05:13:42;;;;;;;18.42;13.00;;;-6.50;99.90;;;;;;5040570;28;20286;-73
2021/01/11 05:16:11;;;;;;;24.50;12.50;;;-6.50;99.90;;;;;;5039263;28;20240;-73
2021/01/11 05:18:39;;;;;;;25.95;14.32;;;-6.40;99.90;;;;;;5038587;28;20189;-74
2021/01/11 05:21:08;;;;;;;23.10;14.10;;;-6.40;99.90;;;;;;5038837;28;20223;-76
2021/01/11 05:23:37;;;;;;;24.45;13.65;;;-6.40;99.90;;;;;;5039374;28;20236;-75
2021/01/11 05:26:13;;;;;;;26.02;12.90;;;-6.40;99.90;;;;;;5072726;28;20251;-74
2021/01/11 05:28:42;;;;;;;18.55;12.05;;;-6.40;99.90;;;;;;5041474;28;20552;-73
2021/01/11 05:31:10;;;;;;;23.30;13.93;;;-6.40;99.90;;;;;;5040546;28;20240;-73
2021/01/11 05:33:52;;;;;;;19.08;11.45;;;-6.40;99.90;;;;;;5039571;28;20185;-74
2021/01/11 05:36:22;;;;;;;28.27;13.35;;;-6.40;99.90;;;;;;5040603;28;20562;-73
2021/01/11 05:38:50;;;;;;;26.50;13.25;;;-6.30;99.90;;;;;;5040842;28;20193;-77
2021/01/11 05:41:19;;;;;;;20.83;13.52;;;-6.30;99.90;;;;;;5036217;28;20295;-73
2021/01/11 05:43:47;;;;;;;27.80;14.35;;;-6.30;99.90;;;;;;5041432;28;20185;-73
2021/01/11 05:46:23;;;;;;;33.45;14.10;;;-6.30;99.90;;;;;;5071304;28;20326;-72
2021/01/11 05:49:02;;;;;;;38.05;14.20;;;-6.30;99.90;;;;;;5037014;28;20672;-73
2021/01/11 05:51:31;;;;;;;19.95;12.45;;;-6.30;99.90;;;;;;5037109;28;20296;-73
2021/01/11 05:53:59;;;;;;;30.40;13.40;;;-6.30;99.90;;;;;;5036882;28;20189;-73
2021/01/11 05:56:26;;;;;;;39.70;12.77;;;-6.30;99.90;;;;;;5035510;28;20233;-74
2021/01/11 05:59:05;;;;;;;15.95;10.52;;;-6.30;99.90;;;;;;5037000;28;20281;-72
2021/01/11 06:01:35;;;;;;;24.48;12.50;;;-6.30;99.90;;;;;;5037506;28;20339;-75
2021/01/11 06:04:05;;;;;;;20.88;12.85;;;-6.20;99.90;;;;;;5038895;28;20652;-77
2021/01/11 06:06:33;;;;;;;20.85;11.50;;;-6.20;99.90;;;;;;5069887;28;20193;-80
2021/01/11 06:09:02;;;;;;;30.38;13.40;;;-6.20;99.90;;;;;;5038580;28;20184;-77
2021/01/11 06:11:30;;;;;;;55.53;16.85;;;-6.20;99.90;;;;;;5036903;28;20262;-72
2021/01/11 06:13:58;;;;;;;20.15;11.35;;;-6.40;99.90;;;;;;5052299;28;20284;-74
2021/01/11 06:16:28;;;;;;;24.67;13.00;;;-6.40;99.90;;;;;;5035392;28;20580;-74
2021/01/11 06:18:56;;;;;;;25.83;12.25;;;-6.40;99.90;;;;;;5037179;28;20255;-75
2021/01/11 06:21:23;;;;;;;26.10;12.02;;;-6.40;99.90;;;;;;5039148;28;20203;-74
2021/01/11 06:24:14;;;;;;;20.45;10.10;;;-6.40;99.90;;;;;;5043838;28;20232;-73
2021/01/11 06:26:43;;;;;;;26.08;13.23;;;-6.40;99.90;;;;;;5042482;28;20199;-75
2021/01/11 06:29:31;;;;;;;21.75;13.68;;;-6.40;99.90;;;;;;5041264;28;20272;-74
2021/01/11 06:32:21;;;;;;;30.92;12.15;;;-6.40;99.90;;;;;;5041895;28;20228;-78
2021/01/11 06:34:54;;;;;;;28.55;12.68;;;-6.30;99.90;;;;;;5040865;28;20303;-75
2021/01/11 06:37:24;;;;;;;25.13;12.70;;;-6.30;99.90;;;;;;5039774;28;20283;-78
2021/01/11 06:40:02;;;;;;;27.83;13.32;;;-6.20;99.90;;;;;;5039987;28;20193;-75
2021/01/11 06:42:31;;;;;;;38.30;13.95;;;-6.20;99.90;;;;;;5040884;28;20222;-74
2021/01/11 06:45:35;;;;;;;24.00;12.95;;;-6.10;99.90;;;;;;5037343;28;20271;-74
2021/01/11 06:48:05;;;;;;;35.92;12.30;;;-6.10;99.90;;;;;;5051569;28;20243;-73
2021/01/11 06:50:35;;;;;;;28.70;12.73;;;-6.20;99.90;;;;;;5040423;28;20180;-78
2021/01/11 06:53:03;;;;;;;21.95;13.40;;;-6.20;99.90;;;;;;5036667;28;20243;-74
2021/01/11 06:55:32;;;;;;;23.17;12.60;;;-6.20;99.90;;;;;;5035776;28;20725;-74
2021/01/11 06:58:00;;;;;;;26.23;14.27;;;-6.30;99.90;;;;;;5037024;28;20570;-74
2021/01/11 07:00:35;;;;;;;27.75;13.48;;;-6.30;99.90;;;;;;5036392;28;20200;-75
2021/01/11 07:03:04;;;;;;;22.17;12.38;;;-6.30;99.90;;;;;;5036602;28;20239;-77
2021/01/11 07:05:48;;;;;;;20.60;13.05;;;-6.30;99.90;;;;;;5037360;28;20268;-75
2021/01/11 07:08:20;;;;;;;26.33;12.88;;;-6.10;99.90;;;;;;5033309;28;20236;-75
2021/01/11 07:11:02;;;;;;;20.95;12.45;;;-6.00;99.90;;;;;;5026735;28;20323;-74
2021/01/11 07:13:54;;;;;;;33.80;14.32;;;-6.10;99.90;;;;;;5028410;28;20212;-74
2021/01/11 07:16:22;;;;;;;26.27;11.38;;;-6.20;99.90;;;;;;5024766;28;20331;-75
2021/01/11 07:18:53;;;;;;;91.63;18.42;;;-6.20;99.90;;;;;;5042147;28;20220;-75
2021/01/11 07:21:23;;;;;;;29.88;14.75;;;-6.30;99.90;;;;;;5027745;28;20288;-75
2021/01/11 07:23:51;;;;;;;30.77;15.00;;;-6.30;99.90;;;;;;5026512;28;20259;-75
2021/01/11 07:26:20;;;;;;;26.92;12.63;;;-6.30;99.90;;;;;;5025320;28;20231;-74
2021/01/11 07:28:53;;;;;;;23.70;12.75;;;-6.20;99.90;;;;;;5026092;28;20205;-73
2021/01/11 07:31:22;;;;;;;27.92;14.23;;;-6.20;99.90;;;;;;5026423;28;20272;-74
2021/01/11 07:34:01;;;;;;;31.45;15.25;;;-6.20;99.90;;;;;;5028062;28;20259;-74
2021/01/11 07:36:38;;;;;;;28.20;12.98;;;-6.20;99.90;;;;;;5028603;28;20224;-72
2021/01/11 07:39:11;;;;;;;28.83;13.30;;;-6.10;99.90;;;;;;5027086;28;20257;-74
2021/01/11 07:41:39;;;;;;;34.70;14.63;;;-6.20;99.90;;;;;;5025554;28;20221;-74
2021/01/11 07:44:15;;;;;;;27.30;12.68;;;-6.10;99.90;;;;;;5026419;28;20272;-74
2021/01/11 07:46:44;;;;;;;32.30;13.95;;;-6.10;99.90;;;;;;5018580;28;20240;-76
2021/01/11 07:49:51;;;;;;;26.63;13.82;;;-6.00;99.90;;;;;;5026057;28;20235;-75
2021/01/11 07:52:21;;;;;;;25.95;14.07;;;-5.90;99.90;;;;;;5024696;28;20224;-73
2021/01/11 07:54:56;;;;;;;30.08;13.48;;;-5.80;99.90;;;;;;5028499;28;20244;-73
2021/01/11 07:57:26;;;;;;;33.60;16.15;;;-5.80;99.90;;;;;;4970267;28;20274;-75
2021/01/11 08:00:05;;;;;;;33.55;19.40;;;-6.00;99.90;;;;;;5036723;28;20230;-73
2021/01/11 08:02:39;;;;;;;19.80;11.70;;;-5.90;99.90;;;;;;5007437;28;20308;-73
2021/01/11 08:05:20;;;;;;;23.92;13.23;;;-5.90;99.90;;;;;;5007704;28;20209;-74
2021/01/11 08:07:50;;;;;;;29.73;16.02;;;-5.90;99.90;;;;;;5008898;28;20240;-73
2021/01/11 08:10:23;;;;;;;27.02;15.07;;;-5.90;99.90;;;;;;5006062;28;20295;-75
2021/01/11 08:12:51;;;;;;;27.13;14.60;;;-5.90;99.90;;;;;;5009086;28;20216;-73
2021/01/11 08:15:20;;;;;;;31.02;15.18;;;-5.90;99.90;;;;;;5007753;28;20259;-73
2021/01/11 08:17:48;;;;;;;23.05;13.48;;;-5.80;99.90;;;;;;5024194;28;20236;-74
2021/01/11 08:20:24;;;;;;;27.13;14.95;;;-5.80;99.90;;;;;;5024481;28;20271;-75
2021/01/11 08:22:51;;;;;;;28.30;13.98;;;-5.70;99.90;;;;;;5024260;28;21244;-75
2021/01/11 08:25:20;;;;;;;23.20;12.77;;;-5.60;99.90;;;;;;5038974;28;20652;-75
2021/01/11 08:27:51;;;;;;;37.65;17.42;;;-5.60;99.90;;;;;;5022597;28;20216;-75
2021/01/11 08:30:24;;;;;;;34.05;13.02;;;-5.70;99.90;;;;;;5022615;28;20266;-73
2021/01/11 08:32:52;;;;;;;25.00;14.27;;;-5.90;99.90;;;;;;5023571;28;20251;-74
2021/01/11 08:35:21;;;;;;;29.38;13.95;;;-5.80;99.90;;;;;;5022728;28;20232;-74
2021/01/11 08:37:49;;;;;;;19.92;12.68;;;-5.40;99.90;;;;;;5022714;28;20806;-76
2021/01/11 08:40:26;;;;;;;26.48;12.88;;;-5.50;99.90;;;;;;5006007;28;20303;-75
2021/01/11 08:43:20;;;;;;;23.15;12.88;;;-5.40;99.90;;;;;;5023338;28;20307;-74
2021/01/11 08:45:52;;;;;;;24.00;12.85;;;-5.40;99.90;;;;;;5011227;28;20252;-74
2021/01/11 08:48:25;;;;;;;24.23;11.80;;;-5.30;99.90;;;;;;5024313;28;20271;-75
2021/01/11 08:50:59;;;;;;;19.67;11.25;;;-5.30;99.90;;;;;;5024708;28;20239;-74
2021/01/11 08:53:29;;;;;;;23.52;12.60;;;-5.40;99.90;;;;;;5024211;28;20213;-76
2021/01/11 08:56:00;;;;;;;21.60;11.75;;;-5.40;99.90;;;;;;5025091;28;20616;-75
2021/01/11 08:58:28;;;;;;;20.05;11.63;;;-5.10;99.90;;;;;;5024630;28;20254;-74
2021/01/11 09:01:10;;;;;;;15.48;10.32;;;-5.00;99.90;;;;;;5023276;28;20219;-74
2021/01/11 09:03:40;;;;;;;21.05;13.85;;;-5.00;99.90;;;;;;5022753;28;20704;-74
2021/01/11 09:09:28;;;;;;;23.58;12.52;;;-4.70;99.90;;;;;;5022629;28;20247;-75
2021/01/11 09:12:03;;;;;;;19.95;11.80;;;-4.10;99.90;;;;;;5022568;28;20333;-74
2021/01/11 09:14:32;;;;;;;19.80;12.27;;;-3.90;99.90;;;;;;5025471;28;20294;-75
2021/01/11 09:17:02;;;;;;;19.92;10.88;;;-3.70;99.90;;;;;;5018512;28;20347;-74
2021/01/11 09:19:32;;;;;;;21.20;12.27;;;-3.60;99.90;;;;;;5019328;28;20221;-75
2021/01/11 09:22:03;;;;;;;21.60;11.23;;;-3.60;99.90;;;;;;5018516;28;20221;-75
2021/01/11 09:24:32;;;;;;;18.27;9.65;;;-3.20;99.90;;;;;;5003424;28;20552;-74
2021/01/11 09:27:03;;;;;;;21.25;10.77;;;-2.80;99.90;;;;;;4986485;28;20232;-75
2021/01/11 09:29:31;;;;;;;20.15;10.70;;;-2.70;99.90;;;;;;5004848;28;20229;-74
2021/01/11 09:31:58;;;;;;;15.25;10.48;;;-2.90;99.90;;;;;;5013041;28;20674;-72
2021/01/11 09:34:26;;;;;;;21.17;11.18;;;-3.10;99.90;;;;;;5023237;28;21282;-74
2021/01/11 09:36:54;;;;;;;17.35;9.63;;;-3.10;99.90;;;;;;5026321;28;20228;-74
2021/01/11 09:39:21;;;;;;;25.00;12.85;;;-3.50;99.90;;;;;;5026433;28;20262;-75
2021/01/11 09:41:51;;;;;;;18.27;11.82;;;-3.80;99.90;;;;;;5028957;28;20216;-73
2021/01/11 09:44:19;;;;;;;17.10;12.50;;;-3.50;99.90;;;;;;5027646;28;20227;-74
2021/01/11 09:46:48;;;;;;;20.10;11.77;;;-3.30;99.90;;;;;;5027334;28;20615;-74
2021/01/11 09:49:17;;;;;;;21.38;11.38;;;-3.30;99.90;;;;;;5026560;28;21526;-74
2021/01/11 09:51:45;;;;;;;13.57;9.80;;;-3.60;99.90;;;;;;5027910;28;20278;-73
2021/01/11 09:54:12;;;;;;;28.58;13.25;;;-3.40;99.90;;;;;;5027823;28;20216;-75
2021/01/11 09:56:40;;;;;;;20.97;14.30;;;-3.40;99.90;;;;;;5026911;28;20232;-73
2021/01/11 09:59:11;;;;;;;23.60;13.37;;;-3.30;99.90;;;;;;5027512;28;20466;-74
2021/01/11 10:01:40;;;;;;;23.90;11.80;;;-3.00;99.90;;;;;;5024968;28;20546;-74
2021/01/11 10:04:08;;;;;;;18.50;11.43;;;-2.50;99.90;;;;;;5027545;28;20459;-75
2021/01/11 10:06:37;;;;;;;23.07;13.60;;;-2.00;99.90;;;;;;5027296;28;20459;-74
2021/01/11 10:09:05;;;;;;;18.70;11.30;;;-1.60;99.90;;;;;;5024771;28;20451;-75
2021/01/11 10:11:33;;;;;;;24.50;13.07;;;-1.40;99.90;;;;;;5024068;28;20461;-75
2021/01/11 10:14:02;;;;;;;22.83;12.80;;;-0.90;99.90;;;;;;5026435;28;21698;-77
2021/01/11 10:16:33;;;;;;;18.23;11.57;;;-0.60;99.90;;;;;;5024475;28;20977;-75
2021/01/11 10:19:02;;;;;;;16.50;11.27;;;-0.60;99.90;;;;;;5024643;28;20553;-76
2021/01/11 10:21:30;;;;;;;20.57;12.27;;;-0.70;99.90;;;;;;5025554;28;20459;-75
2021/01/11 10:23:58;;;;;;;16.23;11.10;;;-0.50;99.90;;;;;;5023603;28;20482;-76
2021/01/11 10:26:26;;;;;;;18.00;10.97;;;-0.50;99.90;;;;;;5024469;28;20570;-74
2021/01/11 10:28:54;;;;;;;20.67;12.67;;;-0.30;99.90;;;;;;5026596;28;20459;-76
2021/01/11 10:31:21;;;;;;;18.63;11.33;;;0.30;99.90;;;;;;5024773;28;20532;-76
2021/01/11 10:33:50;;;;;;;18.33;12.17;;;0.20;99.90;;;;;;5040412;28;20471;-78
2021/01/11 10:36:19;;;;;;;17.50;10.60;;;0.50;99.90;;;;;;5026519;28;20840;-76
2021/01/11 10:38:46;;;;;;;16.40;10.10;;;0.10;99.90;;;;;;5010223;28;20544;-75
2021/01/11 10:41:20;;;;;;;20.60;11.60;;;-0.50;99.90;;;;;;5028007;28;20941;-76
2021/01/11 10:43:49;;;;;;;17.37;11.70;;;-0.70;99.90;;;;;;5023267;28;20560;-77
2021/01/11 10:46:18;;;;;;;18.10;10.60;;;-0.50;99.90;;;;;;5023742;28;20525;-77
2021/01/11 10:48:46;;;;;;;19.30;10.43;;;0.20;99.90;;;;;;5025678;28;20457;-76
2021/01/11 10:51:15;;;;;;;20.03;10.73;;;0.60;99.90;;;;;;5025946;28;20608;-74
2021/01/11 10:53:45;;;;;;;16.43;10.30;;;0.70;99.90;;;;;;5026483;28;20517;-74
2021/01/11 10:56:13;;;;;;;22.83;13.13;;;0.90;99.90;;;;;;5023998;28;21576;-75
2021/01/11 10:58:40;;;;;;;20.57;12.20;;;1.10;99.90;;;;;;5024977;28;20505;-76
2021/01/11 11:01:10;;;;;;;15.20;11.30;;;1.30;99.90;;;;;;5024505;28;20557;-75
2021/01/11 11:03:38;;;;;;;17.50;10.37;;;2.10;99.90;;;;;;5026429;28;20555;-76
2021/01/11 11:06:06;;;;;;;18.07;10.43;;;3.10;99.90;;;;;;5040538;28;20546;-75
2021/01/11 11:08:35;;;;;;;20.60;12.10;;;2.60;99.50;;;;;;5025899;28;20451;-74
2021/01/11 11:11:02;;;;;;;22.17;13.00;;;1.90;99.90;;;;;;5025928;28;20460;-76
2021/01/11 11:13:31;;;;;;;17.40;11.23;;;1.60;99.90;;;;;;5025802;28;20490;-75
2021/01/11 11:16:23;;;;;;;17.00;10.60;;;1.90;99.90;;;;;;5022621;28;20495;-76
2021/01/11 11:18:51;;;;;;;24.57;10.70;;;3.50;99.60;;;;;;5025017;28;20462;-74
2021/01/11 11:21:18;;;;;;;15.77;11.60;;;4.00;97.70;;;;;;5023324;28;20569;-76
2021/01/11 11:23:47;;;;;;;18.97;11.60;;;3.60;97.50;;;;;;5024595;28;20479;-76
2021/01/11 11:26:20;;;;;;;14.27;10.07;;;2.50;99.10;;;;;;5023655;28;20467;-74
2021/01/11 11:28:48;;;;;;;20.30;12.63;;;2.50;99.90;;;;;;5024721;28;20513;-74
2021/01/11 11:31:16;;;;;;;19.77;12.37;;;1.90;99.90;;;;;;5024496;28;21546;-75
2021/01/11 11:34:03;;;;;;;19.10;11.63;;;1.70;99.90;;;;;;5025650;28;20487;-75
2021/01/11 11:36:31;;;;;;;20.30;12.70;;;1.50;99.90;;;;;;5023702;28;20507;-75
2021/01/11 11:39:00;;;;;;;19.10;12.53;;;0.40;99.90;;;;;;5024621;28;20608;-75
2021/01/11 11:41:27;;;;;;;21.30;13.37;;;-0.20;99.90;;;;;;5025197;28;20459;-73
2021/01/11 11:43:55;;;;;;;21.80;10.87;;;-0.10;99.90;;;;;;5025958;28;20459;-73
2021/01/11 11:46:23;;;;;;;19.57;11.17;;;0.50;99.90;;;;;;5019226;28;20483;-75
2021/01/11 11:48:56;;;;;;;16.33;10.80;;;0.90;99.90;;;;;;5003588;28;20538;-75
2021/01/11 11:51:27;;;;;;;21.63;10.50;;;1.40;99.90;;;;;;5003557;28;20470;-75
2021/01/11 11:53:56;;;;;;;17.00;9.83;;;0.90;99.90;;;;;;5004789;28;20488;-75
2021/01/11 11:56:24;;;;;;;19.03;11.40;;;0.60;99.90;;;;;;5005700;28;21084;-73
2021/01/11 11:58:51;;;;;;;21.03;13.90;;;0.40;99.90;;;;;;5005019;28;20484;-75
2021/01/11 12:01:20;;;;;;;20.03;12.27;;;-0.10;99.90;;;;;;5008100;28;20562;-74
2021/01/11 12:03:48;;;;;;;20.03;12.10;;;0.20;99.90;;;;;;5024980;28;20453;-75
2021/01/11 12:06:16;;;;;;;17.10;10.57;;;0.30;99.90;;;;;;5023489;28;20455;-76
2021/01/11 12:08:43;;;;;;;17.23;11.00;;;0.20;99.90;;;;;;5024266;28;20463;-75
2021/01/11 12:11:16;;;;;;;19.97;11.90;;;-0.20;99.90;;;;;;5006418;28;20463;-75
2021/01/11 12:13:45;;;;;;;19.87;11.30;;;-0.20;99.90;;;;;;5023228;28;20547;-76
2021/01/11 12:16:13;;;;;;;21.57;14.40;;;0.50;99.90;;;;;;5022315;28;20483;-76
2021/01/11 12:18:42;;;;;;;20.70;10.60;;;1.00;99.90;;;;;;5022593;28;20505;-75
2021/01/11 12:21:10;;;;;;;19.80;11.00;;;2.00;99.90;;;;;;5022366;28;20578;-76
2021/01/11 12:23:38;;;;;;;18.37;10.57;;;2.00;99.90;;;;;;5005680;28;20495;-77
2021/01/11 12:26:06;;;;;;;19.87;13.00;;;1.60;99.90;;;;;;5023723;28;20799;-75
2021/01/11 12:28:34;;;;;;;19.50;11.43;;;1.40;99.90;;;;;;5024149;28;20490;-75
2021/01/11 12:31:03;;;;;;;19.27;11.80;;;0.90;99.90;;;;;;5023536;28;20467;-75
2021/01/11 12:33:30;;;;;;;20.10;12.53;;;0.60;99.90;;;;;;5024793;28;21503;-74
2021/01/11 12:35:57;;;;;;;23.20;11.50;;;0.30;99.90;;;;;;5024120;28;20946;-75
2021/01/11 12:38:24;;;;;;;21.37;11.10;;;0.30;99.90;;;;;;5022771;28;20860;-76
2021/01/11 12:40:52;;;;;;;18.07;10.37;;;0.90;99.90;;;;;;5022469;28;20662;-74
2021/01/11 12:43:20;;;;;;;19.43;12.43;;;0.80;99.90;;;;;;5022365;28;20563;-77
2021/01/11 12:46:24;;;;;;;19.90;12.47;;;0.50;99.90;;;;;;5035914;28;20530;-75
2021/01/11 12:48:53;;;;;;;19.23;11.70;;;1.80;99.90;;;;;;5027464;28;20482;-75
2021/01/11 12:51:23;;;;;;;19.37;12.10;;;3.40;99.90;;;;;;5015745;28;20581;-76